sensor_id;sensor_type;location;lat;lon;timestamp;P1;durP1;ratioP1;P2;durP2;ratioP2
75441;SDS011;64019;48.312;14.226;2024-01-10T00:01:35;11.93;;;5.10;;
75441;SDS011;64019;48.312;14.226;2024-01-10T00:04:01;12.90;;;5.70;;
75441;SDS011;64019;48.312;14.226;2024-01-10T00:06:27;13.90;;;5.50;;
75441;SDS011;64019;48.312;14.226;2024-01-10T00:08:53;9.53;;;4.83;;
75441;SDS011;64019;48.312;14.226;2024-01-10T00:11:19;9.30;;;4.57;;
75441;SDS011;64019;48.312;14.226;2024-01-10T00:13:44;8.57;;;4.67;;
75441;SDS011;64019;48.312;14.226;2024-01-10T00:16:13;11.00;;;4.53;;
75441;SDS011;64019;48.312;14.226;2024-01-10T00:18:39;9.43;;;4.60;;
75441;SDS011;64019;48.312;14.226;2024-01-10T00:21:06;10.70;;;4.30;;
75441;SDS011;64019;48.312;14.226;2024-01-10T00:23:32;9.43;;;4.67;;
75441;SDS011;64019;48.312;14.226;2024-01-10T00:25:58;11.50;;;4.10;;
75441;SDS011;64019;48.312;14.226;2024-01-10T00:28:23;11.47;;;4.13;;
75441;SDS011;64019;48.312;14.226;2024-01-10T00:30:50;7.87;;;4.17;;
75441;SDS011;64019;48.312;14.226;2024-01-10T00:33:15;12.90;;;5.07;;
75441;SDS011;64019;48.312;14.226;2024-01-10T00:35:41;10.23;;;4.50;;
75441;SDS011;64019;48.312;14.226;2024-01-10T00:38:07;8.93;;;4.53;;
75441;SDS011;64019;48.312;14.226;2024-01-10T00:40:33;10.43;;;4.33;;
75441;SDS011;64019;48.312;14.226;2024-01-10T00:42:59;10.70;;;5.07;;
75441;SDS011;64019;48.312;14.226;2024-01-10T00:45:24;10.33;;;4.17;;
75441;SDS011;64019;48.312;14.226;2024-01-10T00:47:50;10.27;;;3.57;;
75441;SDS011;64019;48.312;14.226;2024-01-10T00:50:16;7.27;;;3.67;;
75441;SDS011;64019;48.312;14.226;2024-01-10T00:52:43;8.57;;;4.23;;
75441;SDS011;64019;48.312;14.226;2024-01-10T00:55:09;9.43;;;4.30;;
75441;SDS011;64019;48.312;14.226;2024-01-10T00:57:35;8.00;;;4.17;;
75441;SDS011;64019;48.312;14.226;2024-01-10T01:00:03;9.70;;;4.70;;
75441;SDS011;64019;48.312;14.226;2024-01-10T01:02:34;8.97;;;4.30;;
75441;SDS011;64019;48.312;14.226;2024-01-10T01:05:00;11.27;;;4.53;;
75441;SDS011;64019;48.312;14.226;2024-01-10T01:07:27;12.40;;;4.57;;
75441;SDS011;64019;48.312;14.226;2024-01-10T01:09:52;8.17;;;4.03;;
75441;SDS011;64019;48.312;14.226;2024-01-10T01:12:18;10.57;;;4.90;;
75441;SDS011;64019;48.312;14.226;2024-01-10T01:14:44;11.83;;;4.93;;
75441;SDS011;64019;48.312;14.226;2024-01-10T01:17:09;11.87;;;5.17;;
75441;SDS011;64019;48.312;14.226;2024-01-10T01:19:35;13.40;;;5.50;;
75441;SDS011;64019;48.312;14.226;2024-01-10T01:22:01;11.03;;;4.93;;
75441;SDS011;64019;48.312;14.226;2024-01-10T01:24:27;14.10;;;6.07;;
75441;SDS011;64019;48.312;14.226;2024-01-10T01:26:53;14.53;;;5.53;;
75441;SDS011;64019;48.312;14.226;2024-01-10T01:29:18;14.77;;;5.60;;
75441;SDS011;64019;48.312;14.226;2024-01-10T01:31:45;15.60;;;5.23;;
75441;SDS011;64019;48.312;14.226;2024-01-10T01:34:11;14.23;;;5.83;;
75441;SDS011;64019;48.312;14.226;2024-01-10T01:36:37;13.97;;;5.80;;
75441;SDS011;64019;48.312;14.226;2024-01-10T01:39:02;14.77;;;5.13;;
75441;SDS011;64019;48.312;14.226;2024-01-10T01:41:28;17.47;;;6.27;;
75441;SDS011;64019;48.312;14.226;2024-01-10T01:43:54;12.07;;;5.03;;
75441;SDS011;64019;48.312;14.226;2024-01-10T01:46:20;14.00;;;6.03;;
75441;SDS011;64019;48.312;14.226;2024-01-10T01:48:46;13.27;;;5.00;;
75441;SDS011;64019;48.312;14.226;2024-01-10T01:51:14;13.53;;;5.60;;
75441;SDS011;64019;48.312;14.226;2024-01-10T01:53:41;14.67;;;5.33;;
75441;SDS011;64019;48.312;14.226;2024-01-10T01:56:09;12.57;;;5.47;;
75441;SDS011;64019;48.312;14.226;2024-01-10T01:58:36;17.57;;;6.33;;
75441;SDS011;64019;48.312;14.226;2024-01-10T02:01:02;15.63;;;5.30;;
75441;SDS011;64019;48.312;14.226;2024-01-10T02:03:33;18.03;;;6.40;;
75441;SDS011;64019;48.312;14.226;2024-01-10T02:05:59;15.53;;;5.90;;
75441;SDS011;64019;48.312;14.226;2024-01-10T02:08:28;18.33;;;5.17;;
75441;SDS011;64019;48.312;14.226;2024-01-10T02:10:55;14.90;;;5.77;;
75441;SDS011;64019;48.312;14.226;2024-01-10T02:13:21;13.50;;;5.20;;
75441;SDS011;64019;48.312;14.226;2024-01-10T02:15:47;12.60;;;5.83;;
75441;SDS011;64019;48.312;14.226;2024-01-10T02:18:12;11.57;;;5.67;;
75441;SDS011;64019;48.312;14.226;2024-01-10T02:20:39;16.50;;;6.43;;
75441;SDS011;64019;48.312;14.226;2024-01-10T02:23:07;13.83;;;5.70;;
75441;SDS011;64019;48.312;14.226;2024-01-10T02:25:34;11.43;;;5.30;;
75441;SDS011;64019;48.312;14.226;2024-01-10T02:28:00;14.30;;;5.87;;
75441;SDS011;64019;48.312;14.226;2024-01-10T02:30:25;16.23;;;6.53;;
75441;SDS011;64019;48.312;14.226;2024-01-10T02:32:51;14.13;;;5.70;;
75441;SDS011;64019;48.312;14.226;2024-01-10T02:35:17;17.43;;;6.00;;
75441;SDS011;64019;48.312;14.226;2024-01-10T02:37:42;16.27;;;6.27;;
75441;SDS011;64019;48.312;14.226;2024-01-10T02:40:08;12.87;;;6.40;;
75441;SDS011;64019;48.312;14.226;2024-01-10T02:42:35;17.67;;;6.87;;
75441;SDS011;64019;48.312;14.226;2024-01-10T02:45:00;14.53;;;6.13;;
75441;SDS011;64019;48.312;14.226;2024-01-10T02:47:26;16.60;;;6.33;;
75441;SDS011;64019;48.312;14.226;2024-01-10T02:49:54;17.00;;;6.93;;
75441;SDS011;64019;48.312;14.226;2024-01-10T02:52:19;13.07;;;5.30;;
75441;SDS011;64019;48.312;14.226;2024-01-10T02:54:45;22.77;;;6.50;;
75441;SDS011;64019;48.312;14.226;2024-01-10T02:57:11;14.40;;;6.30;;
75441;SDS011;64019;48.312;14.226;2024-01-10T02:59:37;14.87;;;6.27;;
75441;SDS011;64019;48.312;14.226;2024-01-10T03:02:03;13.77;;;5.40;;
75441;SDS011;64019;48.312;14.226;2024-01-10T03:04:29;13.67;;;6.17;;
75441;SDS011;64019;48.312;14.226;2024-01-10T03:06:54;15.93;;;6.10;;
75441;SDS011;64019;48.312;14.226;2024-01-10T03:09:20;16.03;;;5.83;;
75441;SDS011;64019;48.312;14.226;2024-01-10T03:11:47;14.47;;;6.07;;
75441;SDS011;64019;48.312;14.226;2024-01-10T03:14:12;19.13;;;7.43;;
75441;SDS011;64019;48.312;14.226;2024-01-10T03:16:38;18.67;;;7.07;;
75441;SDS011;64019;48.312;14.226;2024-01-10T03:19:04;18.57;;;6.13;;
75441;SDS011;64019;48.312;14.226;2024-01-10T03:21:29;15.93;;;6.33;;
75441;SDS011;64019;48.312;14.226;2024-01-10T03:23:56;16.40;;;7.37;;
75441;SDS011;64019;48.312;14.226;2024-01-10T03:26:22;18.47;;;6.77;;
75441;SDS011;64019;48.312;14.226;2024-01-10T03:28:49;14.80;;;6.30;;
75441;SDS011;64019;48.312;14.226;2024-01-10T03:31:14;12.73;;;5.37;;
75441;SDS011;64019;48.312;14.226;2024-01-10T03:33:40;17.90;;;6.60;;
75441;SDS011;64019;48.312;14.226;2024-01-10T03:36:08;17.63;;;5.97;;
75441;SDS011;64019;48.312;14.226;2024-01-10T03:38:36;17.20;;;7.17;;
75441;SDS011;64019;48.312;14.226;2024-01-10T03:41:01;19.63;;;7.33;;
75441;SDS011;64019;48.312;14.226;2024-01-10T03:43:27;21.30;;;7.03;;
75441;SDS011;64019;48.312;14.226;2024-01-10T03:45:53;21.37;;;7.30;;
75441;SDS011;64019;48.312;14.226;2024-01-10T03:48:18;17.67;;;6.93;;
75441;SDS011;64019;48.312;14.226;2024-01-10T03:50:44;16.43;;;6.77;;
75441;SDS011;64019;48.312;14.226;2024-01-10T03:53:10;17.73;;;7.07;;
75441;SDS011;64019;48.312;14.226;2024-01-10T03:55:35;17.97;;;7.67;;
75441;SDS011;64019;48.312;14.226;2024-01-10T03:58:01;18.77;;;7.90;;
75441;SDS011;64019;48.312;14.226;2024-01-10T04:00:27;18.03;;;8.43;;
75441;SDS011;64019;48.312;14.226;2024-01-10T04:02:52;18.77;;;7.20;;
75441;SDS011;64019;48.312;14.226;2024-01-10T04:05:18;20.93;;;7.13;;
75441;SDS011;64019;48.312;14.226;2024-01-10T04:07:45;21.57;;;7.20;;
75441;SDS011;64019;48.312;14.226;2024-01-10T04:10:12;21.93;;;8.53;;
75441;SDS011;64019;48.312;14.226;2024-01-10T04:12:42;19.37;;;6.97;;
75441;SDS011;64019;48.312;14.226;2024-01-10T04:15:09;15.73;;;7.77;;
75441;SDS011;64019;48.312;14.226;2024-01-10T04:17:36;16.67;;;7.03;;
75441;SDS011;64019;48.312;14.226;2024-01-10T04:20:01;19.53;;;7.37;;
75441;SDS011;64019;48.312;14.226;2024-01-10T04:22:28;20.20;;;8.03;;
75441;SDS011;64019;48.312;14.226;2024-01-10T04:24:53;20.63;;;7.20;;
75441;SDS011;64019;48.312;14.226;2024-01-10T04:27:22;17.67;;;7.97;;
75441;SDS011;64019;48.312;14.226;2024-01-10T04:29:48;22.67;;;8.17;;
75441;SDS011;64019;48.312;14.226;2024-01-10T04:32:13;26.47;;;7.73;;
75441;SDS011;64019;48.312;14.226;2024-01-10T04:34:39;21.67;;;7.87;;
75441;SDS011;64019;48.312;14.226;2024-01-10T04:37:05;21.00;;;8.43;;
75441;SDS011;64019;48.312;14.226;2024-01-10T04:39:32;19.40;;;8.37;;
75441;SDS011;64019;48.312;14.226;2024-01-10T04:41:58;28.43;;;8.57;;
75441;SDS011;64019;48.312;14.226;2024-01-10T04:44:24;32.10;;;10.83;;
75441;SDS011;64019;48.312;14.226;2024-01-10T04:46:50;31.77;;;9.93;;
75441;SDS011;64019;48.312;14.226;2024-01-10T04:49:16;22.20;;;7.67;;
75441;SDS011;64019;48.312;14.226;2024-01-10T04:51:42;18.83;;;8.27;;
75441;SDS011;64019;48.312;14.226;2024-01-10T04:54:08;26.77;;;8.17;;
75441;SDS011;64019;48.312;14.226;2024-01-10T04:56:34;19.43;;;8.37;;
75441;SDS011;64019;48.312;14.226;2024-01-10T04:59:03;28.17;;;9.77;;
75441;SDS011;64019;48.312;14.226;2024-01-10T05:01:29;21.07;;;9.07;;
75441;SDS011;64019;48.312;14.226;2024-01-10T05:03:56;30.03;;;10.13;;
75441;SDS011;64019;48.312;14.226;2024-01-10T05:06:22;21.60;;;9.73;;
75441;SDS011;64019;48.312;14.226;2024-01-10T05:08:47;26.13;;;9.93;;
75441;SDS011;64019;48.312;14.226;2024-01-10T05:11:13;21.67;;;8.27;;
75441;SDS011;64019;48.312;14.226;2024-01-10T05:13:40;25.47;;;9.30;;
75441;SDS011;64019;48.312;14.226;2024-01-10T05:16:06;23.80;;;9.90;;
75441;SDS011;64019;48.312;14.226;2024-01-10T05:18:31;21.20;;;9.50;;
75441;SDS011;64019;48.312;14.226;2024-01-10T05:20:58;26.40;;;10.13;;
75441;SDS011;64019;48.312;14.226;2024-01-10T05:23:24;23.53;;;9.27;;
75441;SDS011;64019;48.312;14.226;2024-01-10T05:25:50;18.90;;;8.17;;
75441;SDS011;64019;48.312;14.226;2024-01-10T05:28:15;26.00;;;9.57;;
75441;SDS011;64019;48.312;14.226;2024-01-10T05:30:41;30.60;;;10.27;;
75441;SDS011;64019;48.312;14.226;2024-01-10T05:33:10;23.40;;;10.20;;
75441;SDS011;64019;48.312;14.226;2024-01-10T05:35:36;19.43;;;9.57;;
75441;SDS011;64019;48.312;14.226;2024-01-10T05:38:04;30.93;;;9.93;;
75441;SDS011;64019;48.312;14.226;2024-01-10T05:40:30;28.93;;;10.30;;
75441;SDS011;64019;48.312;14.226;2024-01-10T05:42:57;30.07;;;10.70;;
75441;SDS011;64019;48.312;14.226;2024-01-10T05:45:26;26.80;;;10.50;;
75441;SDS011;64019;48.312;14.226;2024-01-10T05:47:53;28.77;;;10.80;;
75441;SDS011;64019;48.312;14.226;2024-01-10T05:50:19;23.73;;;9.87;;
75441;SDS011;64019;48.312;14.226;2024-01-10T05:52:45;26.90;;;10.43;;
75441;SDS011;64019;48.312;14.226;2024-01-10T05:55:11;29.70;;;11.87;;
75441;SDS011;64019;48.312;14.226;2024-01-10T05:57:37;28.83;;;10.27;;
75441;SDS011;64019;48.312;14.226;2024-01-10T06:00:03;26.10;;;10.47;;
75441;SDS011;64019;48.312;14.226;2024-01-10T06:02:35;28.33;;;9.47;;
75441;SDS011;64019;48.312;14.226;2024-01-10T06:05:04;24.30;;;9.77;;
75441;SDS011;64019;48.312;14.226;2024-01-10T06:07:34;20.73;;;9.40;;
75441;SDS011;64019;48.312;14.226;2024-01-10T06:10:03;22.90;;;10.60;;
75441;SDS011;64019;48.312;14.226;2024-01-10T06:12:29;27.10;;;10.07;;
75441;SDS011;64019;48.312;14.226;2024-01-10T06:14:55;26.43;;;9.90;;
75441;SDS011;64019;48.312;14.226;2024-01-10T06:17:21;23.63;;;9.13;;
75441;SDS011;64019;48.312;14.226;2024-01-10T06:19:47;23.83;;;9.53;;
75441;SDS011;64019;48.312;14.226;2024-01-10T06:22:13;33.00;;;9.33;;
75441;SDS011;64019;48.312;14.226;2024-01-10T06:24:39;22.47;;;9.70;;
75441;SDS011;64019;48.312;14.226;2024-01-10T06:27:06;20.10;;;8.47;;
75441;SDS011;64019;48.312;14.226;2024-01-10T06:29:32;26.13;;;9.93;;
75441;SDS011;64019;48.312;14.226;2024-01-10T06:31:58;21.53;;;8.77;;
75441;SDS011;64019;48.312;14.226;2024-01-10T06:34:26;26.67;;;9.83;;
75441;SDS011;64019;48.312;14.226;2024-01-10T06:36:52;32.07;;;9.50;;
75441;SDS011;64019;48.312;14.226;2024-01-10T06:39:18;34.50;;;11.73;;
75441;SDS011;64019;48.312;14.226;2024-01-10T06:41:47;19.40;;;8.63;;
75441;SDS011;64019;48.312;14.226;2024-01-10T06:44:13;20.53;;;9.70;;
75441;SDS011;64019;48.312;14.226;2024-01-10T06:46:39;26.27;;;9.83;;
75441;SDS011;64019;48.312;14.226;2024-01-10T06:49:05;23.37;;;10.03;;
75441;SDS011;64019;48.312;14.226;2024-01-10T06:51:32;21.20;;;9.20;;
75441;SDS011;64019;48.312;14.226;2024-01-10T06:53:58;26.47;;;9.73;;
75441;SDS011;64019;48.312;14.226;2024-01-10T06:56:29;23.57;;;9.87;;
75441;SDS011;64019;48.312;14.226;2024-01-10T06:58:55;21.53;;;10.17;;
75441;SDS011;64019;48.312;14.226;2024-01-10T07:01:21;31.27;;;11.17;;
75441;SDS011;64019;48.312;14.226;2024-01-10T07:03:47;34.17;;;9.90;;
75441;SDS011;64019;48.312;14.226;2024-01-10T07:06:13;28.03;;;10.43;;
75441;SDS011;64019;48.312;14.226;2024-01-10T07:08:42;29.60;;;11.50;;
75441;SDS011;64019;48.312;14.226;2024-01-10T07:11:10;28.30;;;10.50;;
75441;SDS011;64019;48.312;14.226;2024-01-10T07:13:39;22.53;;;9.13;;
75441;SDS011;64019;48.312;14.226;2024-01-10T07:16:05;37.97;;;10.60;;
75441;SDS011;64019;48.312;14.226;2024-01-10T07:18:32;25.00;;;11.73;;
75441;SDS011;64019;48.312;14.226;2024-01-10T07:20:57;21.30;;;9.93;;
75441;SDS011;64019;48.312;14.226;2024-01-10T07:23:23;28.33;;;9.93;;
75441;SDS011;64019;48.312;14.226;2024-01-10T07:25:49;18.27;;;9.13;;
75441;SDS011;64019;48.312;14.226;2024-01-10T07:28:15;28.57;;;9.97;;
75441;SDS011;64019;48.312;14.226;2024-01-10T07:30:41;21.27;;;10.10;;
75441;SDS011;64019;48.312;14.226;2024-01-10T07:33:07;25.40;;;10.80;;
75441;SDS011;64019;48.312;14.226;2024-01-10T07:35:33;30.77;;;11.83;;
75441;SDS011;64019;48.312;14.226;2024-01-10T07:37:59;28.47;;;10.83;;
75441;SDS011;64019;48.312;14.226;2024-01-10T07:40:24;29.03;;;11.63;;
75441;SDS011;64019;48.312;14.226;2024-01-10T07:42:50;31.50;;;9.83;;
75441;SDS011;64019;48.312;14.226;2024-01-10T07:45:16;29.03;;;10.63;;
75441;SDS011;64019;48.312;14.226;2024-01-10T07:47:41;26.20;;;10.40;;
75441;SDS011;64019;48.312;14.226;2024-01-10T07:50:08;28.37;;;9.73;;
75441;SDS011;64019;48.312;14.226;2024-01-10T07:52:34;27.17;;;10.27;;
75441;SDS011;64019;48.312;14.226;2024-01-10T07:55:01;26.53;;;11.00;;
75441;SDS011;64019;48.312;14.226;2024-01-10T07:57:30;26.57;;;10.00;;
75441;SDS011;64019;48.312;14.226;2024-01-10T07:59:56;29.20;;;11.50;;
75441;SDS011;64019;48.312;14.226;2024-01-10T08:02:22;37.83;;;11.63;;
75441;SDS011;64019;48.312;14.226;2024-01-10T08:04:48;26.87;;;11.13;;
75441;SDS011;64019;48.312;14.226;2024-01-10T08:07:14;27.33;;;10.47;;
75441;SDS011;64019;48.312;14.226;2024-01-10T08:09:40;37.50;;;11.60;;
75441;SDS011;64019;48.312;14.226;2024-01-10T08:12:05;23.43;;;10.60;;
75441;SDS011;64019;48.312;14.226;2024-01-10T08:14:32;32.50;;;11.20;;
75441;SDS011;64019;48.312;14.226;2024-01-10T08:16:58;30.33;;;11.33;;
75441;SDS011;64019;48.312;14.226;2024-01-10T08:19:25;31.40;;;11.63;;
75441;SDS011;64019;48.312;14.226;2024-01-10T08:21:54;26.73;;;10.87;;
75441;SDS011;64019;48.312;14.226;2024-01-10T08:24:20;27.60;;;11.03;;
75441;SDS011;64019;48.312;14.226;2024-01-10T08:26:46;40.70;;;12.10;;
75441;SDS011;64019;48.312;14.226;2024-01-10T08:29:19;35.63;;;12.63;;
75441;SDS011;64019;48.312;14.226;2024-01-10T08:31:46;43.83;;;12.93;;
75441;SDS011;64019;48.312;14.226;2024-01-10T08:34:13;27.30;;;11.87;;
75441;SDS011;64019;48.312;14.226;2024-01-10T08:36:39;35.40;;;12.30;;
75441;SDS011;64019;48.312;14.226;2024-01-10T08:39:05;34.73;;;12.97;;
75441;SDS011;64019;48.312;14.226;2024-01-10T08:41:31;34.20;;;11.80;;
75441;SDS011;64019;48.312;14.226;2024-01-10T08:43:58;34.57;;;12.60;;
75441;SDS011;64019;48.312;14.226;2024-01-10T08:46:25;34.77;;;11.30;;
75441;SDS011;64019;48.312;14.226;2024-01-10T08:48:50;31.43;;;12.30;;
75441;SDS011;64019;48.312;14.226;2024-01-10T08:51:16;39.03;;;11.97;;
75441;SDS011;64019;48.312;14.226;2024-01-10T08:53:43;38.73;;;13.73;;
75441;SDS011;64019;48.312;14.226;2024-01-10T08:56:09;40.63;;;12.63;;
75441;SDS011;64019;48.312;14.226;2024-01-10T08:58:35;37.30;;;13.00;;
75441;SDS011;64019;48.312;14.226;2024-01-10T09:01:02;33.13;;;13.77;;
75441;SDS011;64019;48.312;14.226;2024-01-10T09:03:30;44.93;;;13.60;;
75441;SDS011;64019;48.312;14.226;2024-01-10T09:05:56;35.80;;;13.37;;
75441;SDS011;64019;48.312;14.226;2024-01-10T09:08:24;37.43;;;11.40;;
75441;SDS011;64019;48.312;14.226;2024-01-10T09:10:50;49.53;;;14.13;;
75441;SDS011;64019;48.312;14.226;2024-01-10T09:13:15;32.13;;;14.07;;
75441;SDS011;64019;48.312;14.226;2024-01-10T09:15:42;32.73;;;12.73;;
75441;SDS011;64019;48.312;14.226;2024-01-10T09:18:08;37.90;;;13.73;;
75441;SDS011;64019;48.312;14.226;2024-01-10T09:20:34;34.80;;;12.90;;
75441;SDS011;64019;48.312;14.226;2024-01-10T09:23:00;29.23;;;12.67;;
75441;SDS011;64019;48.312;14.226;2024-01-10T09:25:26;37.00;;;13.23;;
75441;SDS011;64019;48.312;14.226;2024-01-10T09:27:52;29.33;;;13.10;;
75441;SDS011;64019;48.312;14.226;2024-01-10T09:30:18;33.50;;;13.60;;
75441;SDS011;64019;48.312;14.226;2024-01-10T09:32:43;32.80;;;12.93;;
75441;SDS011;64019;48.312;14.226;2024-01-10T09:35:10;40.70;;;14.23;;
75441;SDS011;64019;48.312;14.226;2024-01-10T09:37:37;39.07;;;14.00;;
75441;SDS011;64019;48.312;14.226;2024-01-10T09:40:03;41.03;;;14.93;;
75441;SDS011;64019;48.312;14.226;2024-01-10T09:42:31;35.37;;;15.10;;
75441;SDS011;64019;48.312;14.226;2024-01-10T09:44:58;47.40;;;14.50;;
75441;SDS011;64019;48.312;14.226;2024-01-10T09:47:24;47.83;;;12.90;;
75441;SDS011;64019;48.312;14.226;2024-01-10T09:49:51;29.80;;;12.13;;
75441;SDS011;64019;48.312;14.226;2024-01-10T09:52:20;45.50;;;14.73;;
75441;SDS011;64019;48.312;14.226;2024-01-10T09:54:55;33.10;;;12.43;;
75441;SDS011;64019;48.312;14.226;2024-01-10T09:57:24;37.83;;;14.07;;
75441;SDS011;64019;48.312;14.226;2024-01-10T09:59:51;38.87;;;13.60;;
75441;SDS011;64019;48.312;14.226;2024-01-10T10:02:17;37.20;;;14.33;;
75441;SDS011;64019;48.312;14.226;2024-01-10T10:04:53;40.80;;;13.30;;
75441;SDS011;64019;48.312;14.226;2024-01-10T10:07:26;38.47;;;14.73;;
75441;SDS011;64019;48.312;14.226;2024-01-10T10:09:51;30.87;;;13.80;;
75441;SDS011;64019;48.312;14.226;2024-01-10T10:12:18;35.87;;;13.73;;
75441;SDS011;64019;48.312;14.226;2024-01-10T10:14:44;39.37;;;13.90;;
75441;SDS011;64019;48.312;14.226;2024-01-10T10:17:13;46.90;;;15.37;;
75441;SDS011;64019;48.312;14.226;2024-01-10T10:19:42;35.83;;;14.70;;
75441;SDS011;64019;48.312;14.226;2024-01-10T10:22:09;37.63;;;13.53;;
75441;SDS011;64019;48.312;14.226;2024-01-10T10:24:36;35.20;;;13.43;;
75441;SDS011;64019;48.312;14.226;2024-01-10T10:27:07;38.97;;;13.10;;
75441;SDS011;64019;48.312;14.226;2024-01-10T10:29:35;39.37;;;13.70;;
75441;SDS011;64019;48.312;14.226;2024-01-10T10:32:02;44.57;;;14.17;;
75441;SDS011;64019;48.312;14.226;2024-01-10T10:34:30;41.80;;;13.90;;
75441;SDS011;64019;48.312;14.226;2024-01-10T10:36:57;42.33;;;14.77;;
75441;SDS011;64019;48.312;14.226;2024-01-10T10:39:24;44.97;;;15.23;;
75441;SDS011;64019;48.312;14.226;2024-01-10T10:41:50;48.97;;;15.63;;
75441;SDS011;64019;48.312;14.226;2024-01-10T10:44:19;33.93;;;13.00;;
75441;SDS011;64019;48.312;14.226;2024-01-10T10:46:49;44.50;;;13.60;;
75441;SDS011;64019;48.312;14.226;2024-01-10T10:49:27;28.63;;;12.57;;
75441;SDS011;64019;48.312;14.226;2024-01-10T10:51:57;31.23;;;13.63;;
75441;SDS011;64019;48.312;14.226;2024-01-10T10:54:25;34.73;;;15.13;;
75441;SDS011;64019;48.312;14.226;2024-01-10T10:56:57;36.53;;;13.50;;
75441;SDS011;64019;48.312;14.226;2024-01-10T10:59:27;43.97;;;15.57;;
75441;SDS011;64019;48.312;14.226;2024-01-10T11:01:54;40.73;;;15.87;;
75441;SDS011;64019;48.312;14.226;2024-01-10T11:04:21;40.37;;;15.00;;
75441;SDS011;64019;48.312;14.226;2024-01-10T11:06:47;45.67;;;14.97;;
75441;SDS011;64019;48.312;14.226;2024-01-10T11:09:12;37.30;;;13.33;;
75441;SDS011;64019;48.312;14.226;2024-01-10T11:11:58;34.93;;;14.50;;
75441;SDS011;64019;48.312;14.226;2024-01-10T11:25:51;33.67;;;13.47;;
75441;SDS011;64019;48.312;14.226;2024-01-10T11:28:16;33.13;;;13.90;;
75441;SDS011;64019;48.312;14.226;2024-01-10T11:30:49;37.60;;;13.47;;
75441;SDS011;64019;48.312;14.226;2024-01-10T11:33:31;34.53;;;14.07;;
75441;SDS011;64019;48.312;14.226;2024-01-10T11:36:19;36.50;;;14.30;;
75441;SDS011;64019;48.312;14.226;2024-01-10T11:46:33;43.17;;;16.13;;
75441;SDS011;64019;48.312;14.226;2024-01-10T11:48:59;42.83;;;15.27;;
75441;SDS011;64019;48.312;14.226;2024-01-10T11:51:25;42.63;;;15.33;;
75441;SDS011;64019;48.312;14.226;2024-01-10T11:53:51;42.60;;;15.63;;
75441;SDS011;64019;48.312;14.226;2024-01-10T11:56:18;34.77;;;15.17;;
75441;SDS011;64019;48.312;14.226;2024-01-10T11:58:54;49.07;;;16.40;;
75441;SDS011;64019;48.312;14.226;2024-01-10T12:01:42;37.30;;;15.77;;
75441;SDS011;64019;48.312;14.226;2024-01-10T12:04:08;36.80;;;15.30;;
75441;SDS011;64019;48.312;14.226;2024-01-10T12:06:35;38.83;;;15.47;;
75441;SDS011;64019;48.312;14.226;2024-01-10T12:09:01;42.20;;;16.87;;
75441;SDS011;64019;48.312;14.226;2024-01-10T12:11:33;40.40;;;15.67;;
75441;SDS011;64019;48.312;14.226;2024-01-10T12:14:00;43.17;;;16.40;;
75441;SDS011;64019;48.312;14.226;2024-01-10T12:16:29;48.63;;;16.50;;
75441;SDS011;64019;48.312;14.226;2024-01-10T12:18:55;40.67;;;16.40;;
75441;SDS011;64019;48.312;14.226;2024-01-10T12:21:21;39.93;;;16.47;;
75441;SDS011;64019;48.312;14.226;2024-01-10T12:23:46;46.83;;;15.93;;
75441;SDS011;64019;48.312;14.226;2024-01-10T12:26:13;35.60;;;14.17;;
75441;SDS011;64019;48.312;14.226;2024-01-10T12:28:39;37.37;;;14.07;;
75441;SDS011;64019;48.312;14.226;2024-01-10T12:31:05;39.53;;;14.93;;
75441;SDS011;64019;48.312;14.226;2024-01-10T12:33:37;38.80;;;14.27;;
75441;SDS011;64019;48.312;14.226;2024-01-10T12:36:08;36.43;;;13.87;;
75441;SDS011;64019;48.312;14.226;2024-01-10T12:38:40;38.23;;;13.90;;
75441;SDS011;64019;48.312;14.226;2024-01-10T12:41:06;36.03;;;15.07;;
75441;SDS011;64019;48.312;14.226;2024-01-10T12:43:52;43.10;;;14.23;;
75441;SDS011;64019;48.312;14.226;2024-01-10T12:46:21;37.97;;;14.03;;
75441;SDS011;64019;48.312;14.226;2024-01-10T12:49:06;36.80;;;14.53;;
75441;SDS011;64019;48.312;14.226;2024-01-10T12:51:32;35.83;;;13.77;;
75441;SDS011;64019;48.312;14.226;2024-01-10T12:54:01;38.53;;;15.00;;
75441;SDS011;64019;48.312;14.226;2024-01-10T12:56:29;36.77;;;14.40;;
75441;SDS011;64019;48.312;14.226;2024-01-10T12:58:58;41.23;;;15.10;;
75441;SDS011;64019;48.312;14.226;2024-01-10T13:01:24;39.47;;;15.27;;
75441;SDS011;64019;48.312;14.226;2024-01-10T13:03:50;38.07;;;14.20;;
75441;SDS011;64019;48.312;14.226;2024-01-10T13:06:17;31.73;;;13.93;;
75441;SDS011;64019;48.312;14.226;2024-01-10T13:08:45;38.17;;;15.00;;
75441;SDS011;64019;48.312;14.226;2024-01-10T13:11:11;32.40;;;14.83;;
75441;SDS011;64019;48.312;14.226;2024-01-10T13:13:37;39.63;;;15.50;;
75441;SDS011;64019;48.312;14.226;2024-01-10T13:16:03;35.63;;;14.33;;
75441;SDS011;64019;48.312;14.226;2024-01-10T13:18:29;43.20;;;14.50;;
75441;SDS011;64019;48.312;14.226;2024-01-10T13:20:55;42.60;;;15.43;;
75441;SDS011;64019;48.312;14.226;2024-01-10T13:23:21;36.40;;;14.57;;
75441;SDS011;64019;48.312;14.226;2024-01-10T13:25:49;34.33;;;13.73;;
75441;SDS011;64019;48.312;14.226;2024-01-10T13:28:15;38.63;;;15.10;;
75441;SDS011;64019;48.312;14.226;2024-01-10T13:30:41;32.37;;;13.23;;
75441;SDS011;64019;48.312;14.226;2024-01-10T13:33:08;39.57;;;15.13;;
75441;SDS011;64019;48.312;14.226;2024-01-10T13:35:35;35.37;;;14.90;;
75441;SDS011;64019;48.312;14.226;2024-01-10T13:38:05;37.50;;;14.83;;
75441;SDS011;64019;48.312;14.226;2024-01-10T13:40:31;35.23;;;14.03;;
75441;SDS011;64019;48.312;14.226;2024-01-10T13:42:59;39.80;;;15.40;;
75441;SDS011;64019;48.312;14.226;2024-01-10T13:45:27;34.67;;;14.87;;
75441;SDS011;64019;48.312;14.226;2024-01-10T13:47:54;36.30;;;13.80;;
75441;SDS011;64019;48.312;14.226;2024-01-10T13:50:19;43.67;;;15.27;;
75441;SDS011;64019;48.312;14.226;2024-01-10T13:52:45;40.27;;;15.87;;
75441;SDS011;64019;48.312;14.226;2024-01-10T13:55:11;38.50;;;15.20;;
75441;SDS011;64019;48.312;14.226;2024-01-10T13:57:37;34.10;;;14.67;;
75441;SDS011;64019;48.312;14.226;2024-01-10T14:00:03;35.30;;;15.67;;
75441;SDS011;64019;48.312;14.226;2024-01-10T14:02:32;34.00;;;14.10;;
75441;SDS011;64019;48.312;14.226;2024-01-10T14:04:58;37.10;;;15.87;;
75441;SDS011;64019;48.312;14.226;2024-01-10T14:07:23;39.23;;;13.93;;
75441;SDS011;64019;48.312;14.226;2024-01-10T14:09:49;32.90;;;15.17;;
75441;SDS011;64019;48.312;14.226;2024-01-10T14:12:16;38.10;;;15.50;;
75441;SDS011;64019;48.312;14.226;2024-01-10T14:14:41;33.43;;;15.47;;
75441;SDS011;64019;48.312;14.226;2024-01-10T14:17:07;39.27;;;14.83;;
75441;SDS011;64019;48.312;14.226;2024-01-10T14:19:33;36.80;;;14.77;;
75441;SDS011;64019;48.312;14.226;2024-01-10T14:21:59;34.60;;;14.57;;
75441;SDS011;64019;48.312;14.226;2024-01-10T14:24:25;36.63;;;14.47;;
75441;SDS011;64019;48.312;14.226;2024-01-10T14:26:51;37.10;;;15.03;;
75441;SDS011;64019;48.312;14.226;2024-01-10T14:29:17;33.93;;;15.57;;
75441;SDS011;64019;48.312;14.226;2024-01-10T14:31:43;38.13;;;15.00;;
75441;SDS011;64019;48.312;14.226;2024-01-10T14:34:09;36.80;;;14.40;;